createdAt,value
2022-08-19T00:01:28.679Z,20.73
2022-08-19T00:03:58.058Z,20.74
2022-08-19T00:06:25.050Z,20.73
2022-08-19T00:08:52.472Z,20.72
2022-08-19T00:11:26.031Z,20.74
2022-08-19T00:13:53.565Z,20.73
2022-08-19T00:16:25.085Z,20.74
2022-08-19T00:18:53.243Z,20.74
2022-08-19T00:21:20.190Z,20.72
2022-08-19T00:23:47.322Z,20.67
2022-08-19T00:26:14.544Z,20.64
2022-08-19T00:28:41.576Z,20.62
2022-08-19T00:31:08.809Z,20.61
2022-08-19T00:33:35.972Z,20.60
2022-08-19T00:36:05.481Z,20.54
2022-08-19T00:38:37.638Z,20.51
2022-08-19T00:41:06.193Z,20.46
2022-08-19T00:43:33.071Z,20.43
2022-08-19T00:45:59.925Z,20.38
2022-08-19T00:48:26.880Z,20.35
2022-08-19T00:50:54.321Z,20.34
2022-08-19T00:53:22.002Z,20.30
2022-08-19T00:55:51.391Z,20.28
2022-08-19T00:58:19.125Z,20.30
2022-08-19T01:00:46.728Z,20.30
2022-08-19T01:03:14.878Z,20.28
2022-08-19T01:05:42.713Z,20.25
2022-08-19T01:08:09.581Z,20.25
2022-08-19T01:10:46.760Z,20.20
2022-08-19T01:13:15.417Z,20.18
2022-08-19T01:15:51.709Z,20.15
2022-08-19T01:18:19.257Z,20.13
2022-08-19T01:20:46.449Z,20.08
2022-08-19T01:23:13.465Z,20.07
2022-08-19T01:25:43.464Z,20.04
2022-08-19T01:28:16.457Z,19.99
2022-08-19T01:30:51.114Z,19.95
2022-08-19T01:33:18.597Z,19.89
2022-08-19T01:35:45.464Z,19.85
2022-08-19T01:38:21.721Z,19.79
2022-08-19T01:40:48.955Z,19.75
2022-08-19T01:43:16.372Z,19.67
2022-08-19T01:45:43.630Z,19.63
2022-08-19T01:48:10.548Z,19.56
2022-08-19T01:50:37.328Z,19.48
2022-08-19T01:53:06.711Z,19.41
2022-08-19T01:55:40.514Z,19.38
2022-08-19T01:58:09.142Z,19.34
2022-08-19T02:00:36.006Z,19.32
2022-08-19T02:03:02.871Z,19.29
2022-08-19T02:05:30.467Z,19.27
2022-08-19T02:07:57.800Z,19.25
2022-08-19T02:10:24.654Z,19.23
2022-08-19T02:12:51.893Z,19.25
2022-08-19T02:15:20.523Z,19.28
2022-08-19T02:17:47.734Z,19.25
2022-08-19T02:20:15.057Z,19.23
2022-08-19T02:22:43.508Z,19.26
2022-08-19T02:25:11.365Z,19.28
2022-08-19T02:27:38.459Z,19.30
2022-08-19T02:30:06.300Z,19.29
2022-08-19T02:32:33.477Z,19.32
2022-08-19T02:35:12.120Z,19.33
2022-08-19T02:37:58.107Z,19.32
2022-08-19T02:40:25.098Z,19.27
2022-08-19T02:42:52.253Z,19.27
2022-08-19T02:45:19.322Z,19.25
2022-08-19T02:47:46.449Z,19.23
2022-08-19T02:50:14.032Z,19.22
2022-08-19T02:52:40.863Z,19.22
2022-08-19T02:55:08.059Z,19.20
2022-08-19T02:57:35.432Z,19.18
2022-08-19T03:00:02.824Z,19.17
2022-08-19T03:02:31.769Z,19.11
2022-08-19T03:04:58.636Z,19.10
2022-08-19T03:07:25.458Z,19.13
2022-08-19T03:09:52.327Z,19.14
2022-08-19T03:12:19.248Z,19.14
2022-08-19T03:14:47.698Z,19.15
2022-08-19T03:17:14.552Z,19.15
2022-08-19T03:19:41.460Z,19.16
2022-08-19T03:22:09.004Z,19.16
2022-08-19T03:24:35.921Z,19.16
2022-08-19T03:27:05.476Z,19.12
2022-08-19T03:29:35.096Z,19.13
2022-08-19T03:32:10.464Z,19.16
2022-08-19T03:34:58.058Z,19.16
2022-08-19T03:37:25.045Z,19.14
2022-08-19T03:39:52.956Z,19.16
2022-08-19T03:42:38.453Z,19.18
2022-08-19T03:45:08.543Z,19.26
2022-08-19T03:47:35.459Z,19.29
2022-08-19T03:50:02.603Z,19.35
2022-08-19T03:52:30.731Z,19.39
2022-08-19T03:54:57.552Z,19.42
2022-08-19T03:57:24.453Z,19.45
2022-08-19T04:00:13.256Z,19.48
2022-08-19T04:02:41.682Z,19.55
2022-08-19T04:05:09.383Z,19.60
2022-08-19T04:07:36.729Z,19.65
2022-08-19T04:10:04.045Z,19.71
2022-08-19T04:12:30.894Z,19.76
2022-08-19T04:14:57.747Z,19.78
2022-08-19T04:17:24.713Z,19.80
2022-08-19T04:19:51.555Z,19.84
2022-08-19T04:22:19.611Z,19.86
2022-08-19T04:24:46.607Z,19.88
2022-08-19T04:27:13.768Z,19.91
2022-08-19T04:29:41.436Z,19.89
2022-08-19T04:32:09.070Z,19.96
2022-08-19T04:35:01.377Z,20.06
2022-08-19T04:37:34.707Z,20.21
2022-08-19T04:40:22.832Z,20.31
2022-08-19T04:42:51.868Z,20.41
2022-08-19T04:45:18.962Z,20.55
2022-08-19T04:47:58.381Z,20.65
2022-08-19T04:50:27.317Z,20.71
2022-08-19T04:52:54.647Z,20.78
2022-08-19T04:55:21.716Z,20.83
2022-08-19T04:57:48.899Z,20.82
2022-08-19T05:00:16.011Z,20.87
2022-08-19T05:02:43.207Z,20.96
2022-08-19T05:05:10.205Z,20.95
2022-08-19T05:07:37.319Z,21.00
2022-08-19T05:10:05.225Z,21.08
2022-08-19T05:12:32.345Z,21.05
2022-08-19T05:14:59.796Z,21.02
2022-08-19T05:17:29.042Z,20.99
2022-08-19T05:20:15.879Z,20.98
2022-08-19T05:22:43.737Z,20.97
2022-08-19T05:25:13.897Z,20.99
2022-08-19T05:27:42.574Z,21.06
2022-08-19T05:30:09.883Z,21.03
2022-08-19T05:32:36.904Z,21.01
2022-08-19T05:35:04.603Z,21.05
2022-08-19T05:37:31.678Z,21.14
2022-08-19T05:39:58.559Z,21.21
2022-08-19T05:42:25.619Z,21.17
2022-08-19T05:44:52.554Z,21.23
2022-08-19T05:47:20.936Z,21.28
2022-08-19T05:49:48.509Z,21.37
2022-08-19T05:52:18.604Z,21.50
2022-08-19T05:54:51.431Z,21.69
2022-08-19T05:57:19.447Z,21.81
2022-08-19T05:59:52.819Z,21.79
2022-08-19T06:02:24.924Z,21.82
2022-08-19T06:04:51.981Z,21.85
2022-08-19T06:07:18.831Z,21.86
2022-08-19T06:09:54.465Z,21.87
2022-08-19T06:12:34.127Z,21.88
2022-08-19T06:15:02.232Z,21.89
2022-08-19T06:17:31.970Z,21.88
2022-08-19T06:19:59.722Z,21.94
2022-08-19T06:22:27.055Z,21.93
2022-08-19T06:24:55.024Z,21.95
2022-08-19T06:27:22.456Z,22.02
2022-08-19T06:29:49.488Z,22.08
2022-08-19T06:32:17.499Z,22.15
2022-08-19T06:34:44.426Z,22.21
2022-08-19T06:37:12.183Z,22.23
2022-08-19T06:39:40.123Z,22.24
2022-08-19T06:42:09.698Z,22.28
2022-08-19T06:44:48.016Z,22.26
2022-08-19T06:47:23.487Z,22.17
2022-08-19T06:50:25.013Z,22.22
2022-08-19T06:52:42.212Z,22.29
2022-08-19T06:57:37.573Z,22.38
2022-08-19T07:00:12.874Z,22.45
2022-08-19T07:02:48.247Z,22.59
2022-08-19T07:05:22.948Z,22.69
2022-08-19T07:07:49.775Z,22.80
2022-08-19T07:10:18.155Z,22.89
2022-08-19T07:12:45.436Z,23.01
2022-08-19T07:15:12.555Z,23.13
2022-08-19T07:17:41.883Z,23.28
2022-08-19T07:20:10.162Z,23.39
2022-08-19T07:22:39.698Z,23.52
2022-08-19T07:25:14.125Z,23.72
2022-08-19T07:27:54.217Z,23.87
2022-08-19T07:30:33.986Z,23.96
2022-08-19T07:33:22.329Z,24.11
2022-08-19T07:35:54.268Z,24.35
2022-08-19T07:38:21.377Z,24.43
2022-08-19T07:40:52.442Z,24.55
2022-08-19T07:43:21.683Z,24.67
2022-08-19T07:45:53.028Z,24.90
2022-08-19T07:48:26.392Z,25.12
2022-08-19T07:50:58.063Z,25.47
2022-08-19T07:53:27.963Z,25.73
2022-08-19T07:55:59.085Z,25.79
2022-08-19T07:58:29.440Z,26.01
2022-08-19T08:00:58.454Z,26.09
2022-08-19T08:03:51.763Z,26.24
2022-08-19T08:06:39.956Z,26.44
2022-08-19T08:09:16.399Z,26.66
2022-08-19T08:11:50.009Z,26.95
2022-08-19T08:14:29.276Z,27.17
2022-08-19T08:17:04.211Z,26.94
2022-08-19T08:19:40.851Z,26.66
2022-08-19T08:22:40.654Z,26.44
2022-08-19T08:25:08.750Z,26.30
2022-08-19T08:27:40.848Z,26.48
2022-08-19T08:30:10.441Z,26.84
2022-08-19T08:32:40.256Z,26.87
2022-08-19T08:35:14.487Z,26.73
2022-08-19T08:37:44.760Z,26.61
2022-08-19T08:40:20.506Z,26.33
2022-08-19T08:42:55.643Z,26.59
2022-08-19T08:45:22.851Z,26.67
2022-08-19T08:47:50.177Z,26.34
2022-08-19T08:50:23.961Z,26.38
2022-08-19T08:52:56.788Z,26.61
2022-08-19T08:58:15.136Z,27.55
2022-08-19T09:00:45.643Z,27.43
2022-08-19T09:03:21.046Z,27.39
2022-08-19T09:06:00.672Z,27.21
2022-08-19T09:09:00.781Z,26.97
2022-08-19T09:11:45.745Z,26.85
2022-08-19T09:14:49.893Z,27.02
2022-08-19T09:17:32.219Z,27.72
2022-08-19T09:20:05.214Z,27.93
2022-08-19T09:22:32.700Z,28.02
2022-08-19T09:24:59.690Z,28.13
2022-08-19T09:27:53.936Z,28.63
2022-08-19T09:30:25.595Z,29.12
2022-08-19T09:32:55.849Z,29.60
2022-08-19T09:35:25.852Z,29.75
2022-08-19T09:37:57.346Z,29.71
2022-08-19T09:40:26.687Z,29.70
2022-08-19T09:42:54.157Z,29.83
2022-08-19T09:45:25.936Z,30.06
2022-08-19T09:47:56.273Z,30.43
2022-08-19T09:50:24.573Z,30.30
2022-08-19T09:52:55.027Z,30.22
2022-08-19T09:55:31.589Z,30.14
2022-08-19T09:58:00.757Z,30.34
2022-08-19T10:00:28.981Z,30.74
2022-08-19T10:02:56.225Z,30.97
2022-08-19T10:05:42.851Z,31.28
2022-08-19T10:08:13.461Z,31.43
2022-08-19T10:10:47.182Z,31.30
2022-08-19T10:13:15.284Z,31.36
2022-08-19T10:15:45.228Z,31.60
2022-08-19T10:18:15.643Z,31.81
2022-08-19T10:20:43.393Z,32.17
2022-08-19T10:23:10.607Z,32.42
2022-08-19T10:25:40.606Z,32.40
2022-08-19T10:28:12.948Z,32.28
2022-08-19T10:30:40.602Z,31.82
2022-08-19T10:33:12.820Z,31.89
2022-08-19T10:35:42.614Z,32.15
2022-08-19T10:38:31.608Z,32.20
2022-08-19T10:41:25.988Z,32.36
2022-08-19T10:46:48.982Z,33.16
2022-08-19T10:49:22.608Z,32.86
2022-08-19T10:52:12.005Z,32.41
2022-08-19T10:55:08.469Z,32.17
2022-08-19T10:58:01.412Z,32.30
2022-08-19T11:00:25.932Z,32.11
2022-08-19T11:02:52.964Z,31.92
2022-08-19T11:05:24.271Z,31.75
2022-08-19T11:07:55.053Z,32.01
2022-08-19T11:10:25.216Z,32.38
2022-08-19T11:12:55.864Z,32.55
2022-08-19T11:15:23.089Z,32.97
2022-08-19T11:17:50.351Z,32.90
2022-08-19T11:20:17.503Z,32.44
2022-08-19T11:22:44.343Z,32.44
2022-08-19T11:25:12.362Z,32.41
2022-08-19T11:27:43.373Z,32.59
2022-08-19T11:30:13.217Z,33.12
2022-08-19T11:32:49.109Z,33.23
2022-08-19T11:35:17.234Z,33.15
2022-08-19T11:37:44.165Z,32.52
2022-08-19T11:40:14.064Z,32.10
2022-08-19T11:42:57.348Z,32.13
2022-08-19T11:45:30.533Z,32.44
2022-08-19T11:47:58.250Z,32.32
2022-08-19T11:50:32.732Z,31.89
2022-08-19T11:53:02.197Z,31.69
2022-08-19T11:55:29.180Z,31.79
2022-08-19T11:57:59.183Z,31.45
2022-08-19T12:00:26.126Z,30.87
2022-08-19T12:02:53.284Z,30.42
2022-08-19T12:05:20.630Z,30.30
2022-08-19T12:07:47.742Z,30.25
2022-08-19T12:10:15.584Z,30.58
2022-08-19T12:12:47.385Z,30.93
2022-08-19T12:15:22.856Z,31.10
2022-08-19T12:17:49.961Z,31.30
2022-08-19T12:20:19.681Z,31.26
2022-08-19T12:22:49.002Z,31.13
2022-08-19T12:25:15.903Z,30.95
2022-08-19T12:27:49.656Z,30.37
2022-08-19T12:30:21.792Z,29.84
2022-08-19T12:32:54.150Z,29.79
2022-08-19T12:35:22.112Z,29.86
2022-08-19T12:37:56.759Z,30.24
2022-08-19T12:40:27.326Z,30.35
2022-08-19T12:42:54.681Z,30.71
2022-08-19T12:45:21.505Z,31.24
2022-08-19T12:47:49.689Z,32.26
2022-08-19T12:50:16.790Z,33.14
2022-08-19T12:52:43.629Z,33.62
2022-08-19T12:55:12.262Z,32.56
2022-08-19T12:57:39.192Z,31.43
2022-08-19T13:00:14.767Z,30.55
2022-08-19T13:02:42.755Z,30.21
2022-08-19T13:05:11.232Z,29.60
2022-08-19T13:10:23.387Z,29.16
2022-08-19T13:12:50.995Z,28.65
2022-08-19T13:18:04.540Z,28.07
2022-08-19T13:20:31.489Z,27.96
2022-08-19T13:22:58.563Z,27.82
2022-08-19T13:25:25.945Z,27.48
2022-08-19T13:27:53.635Z,27.11
2022-08-19T13:30:39.712Z,26.96
2022-08-19T13:33:12.658Z,26.78
2022-08-19T13:35:40.302Z,26.51
2022-08-19T13:38:11.913Z,26.30
2022-08-19T13:43:23.809Z,26.11
2022-08-19T13:45:51.596Z,26.20
2022-08-19T13:48:19.389Z,26.24
2022-08-19T13:50:48.027Z,26.33
2022-08-19T13:53:15.260Z,26.25
2022-08-19T13:55:43.177Z,26.12
2022-08-19T13:58:10.501Z,26.07
2022-08-19T14:00:39.548Z,26.00
2022-08-19T14:03:09.278Z,26.04
2022-08-19T14:05:36.766Z,26.11
2022-08-19T14:08:04.015Z,26.16
2022-08-19T14:10:32.620Z,25.99
2022-08-19T14:13:00.955Z,25.86
2022-08-19T14:15:28.145Z,25.79
2022-08-19T14:17:55.393Z,25.76
2022-08-19T14:20:26.226Z,25.67
2022-08-19T14:22:54.006Z,25.63
2022-08-19T14:25:22.091Z,25.65
2022-08-19T14:27:49.365Z,25.52
2022-08-19T14:30:17.620Z,25.45
2022-08-19T14:32:44.563Z,25.36
2022-08-19T14:35:11.859Z,25.22
2022-08-19T14:37:45.287Z,25.16
2022-08-19T14:40:21.713Z,25.04
2022-08-19T14:42:49.667Z,24.88
2022-08-19T14:45:17.206Z,24.79
2022-08-19T14:47:45.335Z,24.76
2022-08-19T14:50:18.137Z,24.72
2022-08-19T14:55:35.401Z,24.68
2022-08-19T14:58:02.602Z,24.71
2022-08-19T15:00:31.958Z,24.67
2022-08-19T15:03:00.083Z,24.63
2022-08-19T15:05:27.974Z,24.62
2022-08-19T15:07:55.768Z,24.64
2022-08-19T15:10:24.696Z,24.69
2022-08-19T15:12:52.139Z,24.65
2022-08-19T15:15:19.055Z,24.59
2022-08-19T15:17:47.506Z,24.52
2022-08-19T15:20:15.476Z,24.49
2022-08-19T15:22:43.307Z,24.48
2022-08-19T15:25:11.683Z,24.40
2022-08-19T15:27:39.979Z,24.43
2022-08-19T15:30:07.925Z,24.39
2022-08-19T15:32:35.986Z,24.34
2022-08-19T15:35:04.630Z,24.33
2022-08-19T15:37:31.567Z,24.33
2022-08-19T15:39:58.837Z,24.27
2022-08-19T15:42:29.632Z,24.22
2022-08-19T15:45:00.378Z,24.19
2022-08-19T15:47:35.850Z,24.17
2022-08-19T15:50:10.519Z,24.13
2022-08-19T15:52:39.601Z,24.09
2022-08-19T15:55:32.571Z,24.06
2022-08-19T15:58:24.089Z,24.05
2022-08-19T16:01:13.946Z,23.98
2022-08-19T16:04:00.359Z,23.92
2022-08-19T16:06:32.699Z,23.89
2022-08-19T16:09:02.081Z,23.79
2022-08-19T16:11:31.538Z,23.67
2022-08-19T16:13:59.085Z,23.56
2022-08-19T16:16:33.995Z,23.48
2022-08-19T16:19:02.604Z,23.39
2022-08-19T16:21:33.532Z,23.33
2022-08-19T16:24:01.830Z,23.22
2022-08-19T16:26:31.668Z,23.18
2022-08-19T16:28:59.407Z,23.09
2022-08-19T16:31:26.396Z,23.03
2022-08-19T16:33:53.589Z,22.93
2022-08-19T16:36:21.289Z,22.80
2022-08-19T16:38:49.562Z,22.74
2022-08-19T16:41:16.629Z,22.63
2022-08-19T16:43:56.659Z,22.52
2022-08-19T16:46:27.250Z,22.43
2022-08-19T16:48:54.470Z,22.40
2022-08-19T16:51:23.014Z,22.31
2022-08-19T16:53:52.786Z,22.28
2022-08-19T16:56:30.082Z,22.27
2022-08-19T16:59:01.970Z,22.19
2022-08-19T17:01:29.226Z,22.11
2022-08-19T17:03:56.673Z,22.04
2022-08-19T17:06:31.080Z,21.94
2022-08-19T17:09:04.160Z,21.92
2022-08-19T17:11:35.040Z,21.88
2022-08-19T17:14:05.922Z,21.91
2022-08-19T17:16:40.657Z,21.88
2022-08-19T17:19:09.474Z,21.83
2022-08-19T17:21:42.576Z,21.76
2022-08-19T17:24:11.255Z,21.72
2022-08-19T17:26:40.577Z,21.64
2022-08-19T17:29:07.797Z,21.63
2022-08-19T17:31:34.934Z,21.60
2022-08-19T17:34:03.755Z,21.56
2022-08-19T17:36:32.269Z,21.54
2022-08-19T17:39:04.682Z,21.49
2022-08-19T17:41:34.256Z,21.43
2022-08-19T17:44:04.890Z,21.39
2022-08-19T17:46:32.190Z,21.32
2022-08-19T17:48:59.245Z,21.27
2022-08-19T17:51:29.740Z,21.21
2022-08-19T17:53:56.667Z,21.19
2022-08-19T17:56:23.829Z,21.14
2022-08-19T17:59:00.698Z,21.11
2022-08-19T18:01:44.014Z,21.08
2022-08-19T18:04:19.928Z,21.03
2022-08-19T18:06:53.792Z,20.98
2022-08-19T18:09:24.790Z,20.96
2022-08-19T18:11:55.274Z,20.93
2022-08-19T18:14:33.342Z,20.90
2022-08-19T18:17:01.871Z,20.87
2022-08-19T18:19:31.530Z,20.85
2022-08-19T18:22:22.725Z,20.83
2022-08-19T18:24:49.748Z,20.82
2022-08-19T18:27:17.048Z,20.80
2022-08-19T18:29:44.632Z,20.77
2022-08-19T18:32:14.655Z,20.76
2022-08-19T18:34:42.289Z,20.77
2022-08-19T18:37:12.207Z,20.72
2022-08-19T18:40:33.772Z,20.70
2022-08-19T18:43:05.787Z,20.64
2022-08-19T18:45:54.529Z,20.56
2022-08-19T18:48:40.644Z,20.52
2022-08-19T18:51:09.215Z,20.50
2022-08-19T18:53:41.180Z,20.49
2022-08-19T18:56:11.667Z,20.44
2022-08-19T18:58:39.050Z,20.45
2022-08-19T19:01:16.856Z,20.41
2022-08-19T19:03:45.774Z,20.38
2022-08-19T19:06:22.588Z,20.35
2022-08-19T19:08:50.413Z,20.30
2022-08-19T19:11:19.107Z,20.30
2022-08-19T19:13:47.209Z,20.26
2022-08-19T19:16:22.398Z,20.21
2022-08-19T19:18:54.264Z,20.20
2022-08-19T19:21:23.277Z,20.13
2022-08-19T19:23:50.617Z,20.12
2022-08-19T19:29:04.607Z,20.10
2022-08-19T19:31:33.524Z,20.06
2022-08-19T19:34:01.015Z,20.03
2022-08-19T19:36:28.245Z,19.99
2022-08-19T19:38:55.330Z,19.97
2022-08-19T19:41:26.306Z,19.94
2022-08-19T19:44:10.015Z,19.90
2022-08-19T19:46:42.919Z,19.90
2022-08-19T19:49:12.769Z,19.86
2022-08-19T19:51:41.119Z,19.82
2022-08-19T19:54:22.981Z,19.82
2022-08-19T19:56:50.616Z,19.80
2022-08-19T19:59:20.310Z,19.79
2022-08-19T20:01:47.363Z,19.76
2022-08-19T20:04:18.768Z,19.75
2022-08-19T20:06:48.569Z,19.72
2022-08-19T20:09:19.880Z,19.66
2022-08-19T20:11:54.147Z,19.61
2022-08-19T20:14:31.932Z,19.60
2022-08-19T20:19:45.327Z,19.62
2022-08-19T20:22:14.293Z,19.62
2022-08-19T20:24:46.789Z,19.59
2022-08-19T20:27:13.671Z,19.54
2022-08-19T20:29:44.522Z,19.46
2022-08-19T20:32:15.614Z,19.38
2022-08-19T20:34:48.399Z,19.35
2022-08-19T20:37:15.469Z,19.27
2022-08-19T20:39:42.355Z,19.27
2022-08-19T20:42:09.416Z,19.27
2022-08-19T20:44:36.399Z,19.24
2022-08-19T20:47:04.191Z,19.21
2022-08-19T20:49:34.594Z,19.18
2022-08-19T20:52:09.380Z,19.15
2022-08-19T20:54:36.439Z,19.18
2022-08-19T20:57:04.046Z,19.18
2022-08-19T20:59:40.746Z,19.19
2022-08-19T21:02:08.162Z,19.23
2022-08-19T21:04:36.350Z,19.25
2022-08-19T21:07:05.017Z,19.29
2022-08-19T21:09:32.319Z,19.32
2022-08-19T21:11:59.148Z,19.32
2022-08-19T21:14:26.113Z,19.28
2022-08-19T21:16:53.889Z,19.29
2022-08-19T21:19:23.960Z,19.31
2022-08-19T21:21:51.473Z,19.40
2022-08-19T21:24:18.572Z,19.46
2022-08-19T21:26:49.381Z,19.50
2022-08-19T21:29:18.003Z,19.54
2022-08-19T21:31:45.133Z,19.55
2022-08-19T21:34:12.020Z,19.56
2022-08-19T21:36:39.062Z,19.58
2022-08-19T21:39:06.055Z,19.58
2022-08-19T21:41:32.918Z,19.58
2022-08-19T21:43:59.799Z,19.58
2022-08-19T21:46:27.104Z,19.58
2022-08-19T21:48:53.936Z,19.53
2022-08-19T21:51:21.199Z,19.48
2022-08-19T21:53:48.293Z,19.44
2022-08-19T21:56:15.487Z,19.44
2022-08-19T21:58:42.340Z,19.45
2022-08-19T22:01:09.794Z,19.43
2022-08-19T22:03:37.481Z,19.38
2022-08-19T22:06:04.517Z,19.36
2022-08-19T22:08:31.712Z,19.31
2022-08-19T22:10:59.405Z,19.26
2022-08-19T22:13:26.460Z,19.21
2022-08-19T22:15:55.219Z,19.15
2022-08-19T22:18:22.133Z,19.07
2022-08-19T22:20:49.032Z,18.97
2022-08-19T22:23:16.118Z,18.93
2022-08-19T22:25:44.609Z,18.89
2022-08-19T22:28:19.089Z,18.86
2022-08-19T22:30:54.721Z,18.83
2022-08-19T22:33:22.559Z,18.81
2022-08-19T22:35:49.435Z,18.81
2022-08-19T22:38:16.530Z,18.83
2022-08-19T22:40:46.183Z,18.80
2022-08-19T22:43:34.139Z,18.80
2022-08-19T22:46:22.865Z,18.76
2022-08-19T22:49:00.891Z,18.66
2022-08-19T22:51:47.143Z,18.57
2022-08-19T22:54:14.109Z,18.47
2022-08-19T22:56:40.958Z,18.35
2022-08-19T22:59:08.672Z,18.28
2022-08-19T23:01:36.263Z,18.19
2022-08-19T23:04:04.103Z,18.14
2022-08-19T23:06:33.137Z,18.05
2022-08-19T23:09:01.300Z,18.01
2022-08-19T23:11:29.452Z,17.91
2022-08-19T23:13:56.383Z,17.85
2022-08-19T23:16:23.562Z,17.79
2022-08-19T23:18:50.374Z,17.69
2022-08-19T23:21:24.654Z,17.61
2022-08-19T23:23:51.548Z,17.53
2022-08-19T23:26:18.381Z,17.46
2022-08-19T23:29:04.205Z,17.39
2022-08-19T23:31:31.134Z,17.35
2022-08-19T23:33:59.580Z,17.29
2022-08-19T23:36:27.261Z,17.27
2022-08-19T23:38:54.789Z,17.28
2022-08-19T23:41:22.129Z,17.28
2022-08-19T23:43:50.810Z,17.25
2022-08-19T23:46:28.164Z,17.23
2022-08-19T23:48:56.260Z,17.19
2022-08-19T23:51:23.215Z,17.14
2022-08-19T23:53:50.123Z,17.11
2022-08-19T23:56:17.284Z,17.10
2022-08-19T23:58:44.073Z,17.10
